Time;durP1;ratioP1;P1;durP2;ratioP2;P2;SDS_P1;SDS_P2;PMS_P1;PMS_P2;Temp;Humidity;BMP_temperature;BMP_pressure;BME280_temperature;BME280_humidity;BME280_pressure;Samples;Min_cycle;Max_cycle;Signal;HPM_P1;HPM_P2
2022/11/14 00:00:55;;;;;;;27.08;21.67;;;13.80;1.00;;;;;;5032205;28;20104;-61
2022/11/14 00:03:20;;;;;;;23.23;20.05;;;13.80;1.00;;;;;;5031755;28;20385;-61
2022/11/14 00:05:46;;;;;;;27.35;22.13;;;13.70;1.00;;;;;;5031790;28;20013;-61
2022/11/14 00:08:20;;;;;;;26.60;22.08;;;13.70;1.00;;;;;;5031978;28;20056;-61
2022/11/14 00:10:47;;;;;;;26.00;22.38;;;13.70;1.00;;;;;;5031713;28;20028;-61
2022/11/14 00:13:14;;;;;;;28.42;23.65;;;13.80;1.00;;;;;;5031693;28;20029;-61
2022/11/14 00:15:40;;;;;;;30.33;23.58;;;13.70;1.00;;;;;;5031914;28;20032;-61
2022/11/14 00:18:05;;;;;;;29.67;24.50;;;13.70;1.00;;;;;;5031890;28;20022;-61
2022/11/14 00:20:31;;;;;;;28.17;22.85;;;13.70;1.00;;;;;;5031251;28;20017;-61
2022/11/14 00:22:57;;;;;;;30.63;23.42;;;13.50;1.00;;;;;;5031131;28;20038;-61
2022/11/14 00:25:23;;;;;;;31.38;24.83;;;13.70;1.00;;;;;;5031388;28;20033;-61
2022/11/14 00:27:49;;;;;;;30.25;24.17;;;13.60;1.00;;;;;;5029228;28;20042;-61
2022/11/14 00:30:14;;;;;;;29.95;24.98;;;13.70;1.00;;;;;;5023332;28;20343;-61
2022/11/14 00:32:40;;;;;;;29.80;24.05;;;13.60;1.00;;;;;;5031472;28;20167;-61
2022/11/14 00:35:08;;;;;;;29.90;24.85;;;13.60;1.00;;;;;;5031670;28;20108;-61
2022/11/14 00:37:33;;;;;;;34.38;26.73;;;13.50;1.00;;;;;;5031400;28;20036;-61
2022/11/14 00:39:59;;;;;;;33.15;26.38;;;13.50;1.00;;;;;;5031330;28;20021;-61
2022/11/14 00:42:25;;;;;;;28.85;24.73;;;13.50;1.00;;;;;;5031262;28;20056;-61
2022/11/14 00:44:50;;;;;;;33.65;26.73;;;13.50;1.00;;;;;;5031321;28;20053;-61
2022/11/14 00:47:16;;;;;;;36.67;27.52;;;13.50;1.00;;;;;;5031238;28;20383;-60
2022/11/14 00:49:41;;;;;;;32.97;26.40;;;13.40;1.00;;;;;;5039530;28;20025;-61
2022/11/14 00:52:07;;;;;;;36.65;27.67;;;13.50;1.00;;;;;;5022528;28;20073;-61
2022/11/14 00:54:33;;;;;;;32.53;25.95;;;13.40;1.00;;;;;;5031116;28;20018;-61
2022/11/14 00:56:58;;;;;;;32.33;26.92;;;13.40;1.00;;;;;;5031373;28;20479;-61
2022/11/14 00:59:24;;;;;;;30.90;25.73;;;13.40;1.00;;;;;;5024808;28;20040;-61
2022/11/14 01:01:49;;;;;;;30.38;24.45;;;13.40;1.00;;;;;;5031534;28;20081;-60
2022/11/14 01:04:15;;;;;;;31.60;25.42;;;13.40;1.00;;;;;;5030964;28;20034;-60
2022/11/14 01:06:41;;;;;;;33.35;26.90;;;13.40;1.00;;;;;;5031206;28;20049;-61
2022/11/14 01:09:07;;;;;;;32.35;25.58;;;13.40;1.00;;;;;;5031173;28;20110;-61
2022/11/14 01:11:32;;;;;;;34.25;26.52;;;13.20;1.00;;;;;;5031221;28;20128;-61
2022/11/14 01:13:58;;;;;;;31.58;26.10;;;13.20;1.00;;;;;;5030913;28;20183;-61
2022/11/14 01:16:23;;;;;;;34.42;27.08;;;13.20;1.00;;;;;;5031253;28;20033;-61
2022/11/14 01:18:49;;;;;;;37.75;26.92;;;13.20;1.00;;;;;;5031156;28;20045;-61
2022/11/14 01:21:15;;;;;;;31.80;25.75;;;12.90;1.00;;;;;;5030848;28;20111;-61
2022/11/14 01:23:40;;;;;;;32.75;25.60;;;13.00;1.00;;;;;;5031324;28;20379;-61
2022/11/14 01:26:12;;;;;;;32.80;28.45;;;13.00;1.00;;;;;;5031034;28;20439;-61
2022/11/14 01:28:38;;;;;;;35.85;27.73;;;13.10;1.00;;;;;;5031086;28;20434;-61
2022/11/14 01:31:30;;;;;;;34.53;25.85;;;13.10;1.00;;;;;;5030913;28;20104;-61
2022/11/14 01:33:56;;;;;;;36.60;27.58;;;13.10;1.00;;;;;;5019519;28;20037;-61
2022/11/14 01:36:22;;;;;;;33.80;26.92;;;13.20;1.00;;;;;;5034682;28;20421;-61
2022/11/14 01:38:52;;;;;;;29.35;24.35;;;13.20;1.00;;;;;;5034478;28;20426;-61
2022/11/14 01:41:19;;;;;;;32.83;26.70;;;13.20;1.00;;;;;;5033680;28;20108;-61
2022/11/14 01:43:44;;;;;;;30.33;26.13;;;13.10;1.00;;;;;;5034724;28;20379;-60
2022/11/14 01:46:25;;;;;;;35.03;27.77;;;13.20;1.00;;;;;;5034465;28;20026;-61
2022/11/14 01:48:55;;;;;;;33.17;28.17;;;13.00;1.00;;;;;;5033963;28;20053;-61
2022/11/14 01:51:28;;;;;;;34.30;26.95;;;12.90;1.00;;;;;;5033993;28;20121;-61
2022/11/14 01:53:57;;;;;;;31.70;26.38;;;13.00;1.00;;;;;;5034322;28;20025;-61
2022/11/14 01:56:35;;;;;;;36.78;28.25;;;13.10;1.00;;;;;;5034009;28;20075;-60
2022/11/14 01:59:10;;;;;;;31.45;26.00;;;12.90;1.00;;;;;;5033124;28;20025;-61
2022/11/14 02:01:41;;;;;;;32.53;26.92;;;13.00;1.00;;;;;;5031530;28;20502;-60
2022/11/14 02:04:07;;;;;;;26.83;22.50;;;12.90;1.00;;;;;;5034123;28;20017;-60
2022/11/14 02:06:34;;;;;;;27.90;22.38;;;13.00;1.00;;;;;;5031307;28;20021;-61
2022/11/14 02:09:03;;;;;;;23.45;20.40;;;13.00;1.00;;;;;;5033462;28;20426;-61
2022/11/14 02:11:33;;;;;;;24.05;20.58;;;12.90;1.00;;;;;;5033612;28;20053;-61
2022/11/14 02:14:00;;;;;;;23.73;20.08;;;13.00;1.00;;;;;;5039587;28;20068;-60
2022/11/14 02:16:26;;;;;;;17.95;16.15;;;13.10;1.00;;;;;;5038469;28;20083;-61
2022/11/14 02:18:52;;;;;;;20.95;16.75;;;13.00;1.00;;;;;;5044185;28;20059;-61
2022/11/14 02:21:17;;;;;;;18.20;15.73;;;12.90;1.00;;;;;;5034265;28;20063;-60
2022/11/14 02:23:43;;;;;;;19.33;16.08;;;13.00;1.00;;;;;;5033112;28;20018;-60
2022/11/14 02:26:09;;;;;;;19.52;17.08;;;13.10;1.00;;;;;;5033042;28;20046;-61
2022/11/14 02:28:35;;;;;;;20.45;16.55;;;12.90;1.00;;;;;;5045741;28;20013;-61
2022/11/14 02:31:00;;;;;;;18.10;15.45;;;12.90;1.00;;;;;;5032768;28;20079;-60
2022/11/14 02:33:26;;;;;;;18.75;16.73;;;13.00;1.00;;;;;;5033324;28;20520;-60
2022/11/14 02:35:51;;;;;;;17.27;15.00;;;13.00;1.00;;;;;;5033559;28;20027;-61
2022/11/14 02:38:17;;;;;;;20.55;17.08;;;13.00;1.00;;;;;;5033486;28;20044;-60
2022/11/14 02:40:43;;;;;;;19.42;15.80;;;13.00;1.00;;;;;;5033683;28;20451;-61
2022/11/14 02:43:08;;;;;;;22.92;18.92;;;13.00;1.00;;;;;;5033881;28;20072;-60
2022/11/14 02:45:34;;;;;;;20.08;17.35;;;12.90;1.00;;;;;;5045511;28;20025;-61
2022/11/14 02:47:59;;;;;;;22.50;19.10;;;13.00;1.00;;;;;;5032996;28;20048;-61
2022/11/14 02:50:25;;;;;;;23.88;19.83;;;13.00;1.00;;;;;;5032987;28;20379;-61
2022/11/14 02:52:52;;;;;;;22.65;19.48;;;13.00;1.00;;;;;;5033222;28;20107;-61
2022/11/14 02:55:18;;;;;;;24.23;20.80;;;13.00;1.00;;;;;;5033217;28;20025;-61
2022/11/14 02:57:44;;;;;;;25.90;20.92;;;13.00;1.00;;;;;;5031518;28;20184;-61
2022/11/14 03:00:10;;;;;;;27.83;23.00;;;13.00;1.00;;;;;;5027439;28;20108;-61
2022/11/14 03:02:36;;;;;;;27.58;22.52;;;12.90;1.00;;;;;;5032784;28;20029;-61
2022/11/14 03:05:01;;;;;;;26.85;21.95;;;12.90;1.00;;;;;;5033078;28;20064;-61
2022/11/14 03:07:27;;;;;;;27.70;23.60;;;13.00;1.00;;;;;;5031473;28;20554;-60
2022/11/14 03:09:52;;;;;;;28.02;24.02;;;13.00;1.00;;;;;;5032979;28;20078;-61
2022/11/14 03:12:18;;;;;;;30.02;24.55;;;12.90;1.00;;;;;;5032711;28;20123;-60
2022/11/14 03:14:44;;;;;;;29.48;24.10;;;12.90;1.00;;;;;;5032860;28;20014;-61
2022/11/14 03:17:10;;;;;;;32.42;25.75;;;12.90;1.00;;;;;;5032138;28;20037;-60
2022/11/14 03:19:35;;;;;;;33.60;27.23;;;12.90;1.00;;;;;;5018852;28;20055;-60
2022/11/14 03:22:01;;;;;;;32.90;25.80;;;13.00;1.00;;;;;;5032531;28;20406;-59
2022/11/14 03:24:27;;;;;;;31.80;26.33;;;12.90;1.00;;;;;;5031066;28;20017;-59
2022/11/14 03:26:52;;;;;;;37.30;28.45;;;12.80;1.00;;;;;;5032192;28;20053;-60
2022/11/14 03:29:18;;;;;;;36.00;28.38;;;12.90;1.00;;;;;;5032410;28;20025;-60
2022/11/14 03:31:44;;;;;;;34.92;27.40;;;12.80;1.00;;;;;;5032200;28;20040;-59
2022/11/14 03:34:09;;;;;;;35.63;28.13;;;12.80;1.00;;;;;;5032113;28;20025;-59
2022/11/14 03:36:36;;;;;;;33.83;27.20;;;12.80;1.00;;;;;;5032155;28;20422;-59
2022/11/14 03:39:03;;;;;;;33.80;26.70;;;12.80;1.00;;;;;;5032579;28;20075;-59
2022/11/14 03:41:29;;;;;;;34.92;28.23;;;12.70;1.00;;;;;;5031920;28;20088;-59
2022/11/14 03:43:54;;;;;;;35.15;27.85;;;12.90;1.00;;;;;;5032030;28;20410;-59
2022/11/14 03:46:20;;;;;;;37.30;28.73;;;12.80;1.00;;;;;;5032413;28;20108;-59
2022/11/14 03:48:45;;;;;;;36.28;30.10;;;12.80;1.00;;;;;;5031821;28;20496;-59
2022/11/14 03:51:11;;;;;;;33.35;27.40;;;12.90;1.00;;;;;;5030227;28;20038;-59
2022/11/14 03:53:37;;;;;;;36.15;28.67;;;12.70;1.00;;;;;;5031997;28;20017;-59
2022/11/14 03:56:03;;;;;;;39.67;29.48;;;12.60;1.00;;;;;;5031889;28;20029;-59
2022/11/14 03:58:28;;;;;;;38.85;30.30;;;12.60;1.00;;;;;;5031640;28;20116;-60
2022/11/14 04:00:54;;;;;;;37.67;30.05;;;12.60;1.00;;;;;;5031825;28;20033;-59
2022/11/14 04:03:21;;;;;;;45.78;32.08;;;12.40;1.00;;;;;;5031669;28;20021;-60
2022/11/14 04:05:47;;;;;;;43.10;33.75;;;12.50;1.00;;;;;;5031632;28;20028;-60
2022/11/14 04:08:13;;;;;;;41.30;30.63;;;12.50;1.00;;;;;;5031825;28;20029;-59
2022/11/14 04:10:40;;;;;;;40.85;31.92;;;12.60;1.00;;;;;;5031779;28;20110;-59
2022/11/14 04:13:06;;;;;;;40.97;31.70;;;12.40;1.00;;;;;;5031951;28;20076;-59
2022/11/14 04:15:32;;;;;;;43.47;32.58;;;12.30;1.00;;;;;;5031526;28;20017;-59
2022/11/14 04:17:57;;;;;;;42.20;31.90;;;12.40;1.00;;;;;;5038054;28;20528;-59
2022/11/14 04:20:23;;;;;;;41.90;32.67;;;12.40;1.00;;;;;;5038954;28;20108;-59
2022/11/14 04:22:49;;;;;;;46.03;33.70;;;12.50;1.00;;;;;;5031643;28;20026;-59
2022/11/14 04:25:14;;;;;;;44.33;32.00;;;12.40;1.00;;;;;;5031763;28;20026;-59
2022/11/14 04:27:40;;;;;;;46.92;33.80;;;12.50;1.00;;;;;;5030120;28;20026;-59
2022/11/14 04:30:06;;;;;;;45.20;33.80;;;12.50;1.00;;;;;;5031476;28;20108;-59
2022/11/14 04:32:32;;;;;;;45.47;33.95;;;12.70;1.00;;;;;;5031306;28;20037;-59
2022/11/14 04:34:57;;;;;;;39.65;31.23;;;12.60;1.00;;;;;;5031714;28;20064;-59
2022/11/14 04:37:23;;;;;;;45.53;34.58;;;12.60;1.00;;;;;;5031481;28;20057;-59
2022/11/14 04:39:49;;;;;;;46.53;34.13;;;12.60;1.00;;;;;;5031297;28;20104;-59
2022/11/14 04:42:14;;;;;;;47.20;35.08;;;12.50;1.00;;;;;;5031383;28;20159;-59
2022/11/14 04:44:40;;;;;;;49.58;35.97;;;12.60;1.00;;;;;;5031280;28;20490;-59
2022/11/14 04:47:05;;;;;;;48.10;34.80;;;12.50;1.00;;;;;;5030020;28;20055;-59
2022/11/14 04:49:31;;;;;;;46.38;34.40;;;12.50;1.00;;;;;;5030723;28;20402;-59
2022/11/14 04:51:57;;;;;;;47.65;34.08;;;12.50;1.00;;;;;;5031177;28;20038;-59
2022/11/14 04:54:22;;;;;;;44.97;33.45;;;12.50;1.00;;;;;;5029862;28;20084;-60
2022/11/14 04:56:48;;;;;;;44.00;34.08;;;12.60;1.00;;;;;;5031361;28;20038;-59
2022/11/14 04:59:14;;;;;;;46.42;34.20;;;12.60;1.00;;;;;;5031102;28;20538;-59
2022/11/14 05:01:39;;;;;;;43.88;33.70;;;12.60;1.00;;;;;;5035531;28;20481;-59
2022/11/14 05:04:05;;;;;;;46.55;35.15;;;12.50;1.00;;;;;;5035314;28;20112;-59
2022/11/14 05:06:30;;;;;;;45.40;33.92;;;12.50;1.00;;;;;;5038954;28;20100;-60
2022/11/14 05:08:56;;;;;;;51.33;36.75;;;12.50;1.00;;;;;;5037839;28;20036;-59
2022/11/14 05:11:22;;;;;;;47.17;35.75;;;12.50;1.00;;;;;;5039459;28;20040;-59
2022/11/14 05:13:48;;;;;;;50.35;36.42;;;12.60;1.00;;;;;;5040934;28;20014;-59
2022/11/14 05:16:13;;;;;;;47.00;34.35;;;12.50;1.00;;;;;;5039037;28;20022;-59
2022/11/14 05:18:39;;;;;;;49.45;36.63;;;12.50;1.00;;;;;;5050867;28;20051;-59
2022/11/14 05:21:05;;;;;;;46.70;34.13;;;12.50;1.00;;;;;;5036386;28;20423;-59
2022/11/14 05:23:31;;;;;;;49.45;35.65;;;12.60;1.00;;;;;;5035127;28;20368;-59
2022/11/14 05:26:05;;;;;;;49.50;36.45;;;12.60;1.00;;;;;;5034645;28;20034;-59
2022/11/14 05:28:31;;;;;;;49.38;36.80;;;12.60;1.00;;;;;;5034774;28;20052;-59
2022/11/14 05:31:06;;;;;;;48.33;36.15;;;12.60;1.00;;;;;;5034474;28;20029;-59
2022/11/14 05:33:32;;;;;;;54.53;37.67;;;12.50;1.00;;;;;;5034912;28;20018;-59
2022/11/14 05:36:03;;;;;;;53.40;36.63;;;12.50;1.00;;;;;;5034509;28;20026;-59
2022/11/14 05:38:28;;;;;;;49.22;35.90;;;12.50;1.00;;;;;;5034758;28;20376;-59
2022/11/14 05:40:54;;;;;;;46.38;35.47;;;12.40;1.00;;;;;;5034366;28;20176;-60
2022/11/14 05:43:19;;;;;;;49.38;35.75;;;12.40;1.00;;;;;;5034889;28;20033;-60
2022/11/14 05:45:45;;;;;;;50.92;36.92;;;12.50;1.00;;;;;;5034485;28;20071;-60
2022/11/14 05:48:10;;;;;;;51.47;36.80;;;12.50;1.00;;;;;;5034278;28;20517;-59
2022/11/14 05:50:36;;;;;;;44.33;34.47;;;12.50;1.00;;;;;;5032902;28;20113;-59
2022/11/14 05:53:02;;;;;;;44.67;33.22;;;12.50;1.00;;;;;;5032716;28;20036;-59
2022/11/14 05:55:28;;;;;;;44.63;33.72;;;12.50;1.00;;;;;;5033971;28;20506;-59
2022/11/14 05:58:02;;;;;;;47.97;34.65;;;12.30;1.00;;;;;;5034486;28;20056;-59
2022/11/14 06:00:28;;;;;;;;;;;12.50;1.00;;;;;;5019759;28;20019;-59
2022/11/14 06:02:54;;;;;;;49.30;35.22;;;12.50;1.00;;;;;;5034151;28;20003;-59
2022/11/14 06:05:21;;;;;;;46.30;33.78;;;12.50;1.00;;;;;;5033860;28;20079;-59
2022/11/14 06:07:46;;;;;;;51.72;37.30;;;12.60;1.00;;;;;;5033993;28;20052;-59
2022/11/14 06:10:12;;;;;;;46.35;34.05;;;12.50;1.00;;;;;;5033862;28;20455;-59
2022/11/14 06:12:38;;;;;;;48.63;35.83;;;12.50;1.00;;;;;;5034132;28;20042;-59
2022/11/14 06:15:04;;;;;;;46.13;34.28;;;12.40;1.00;;;;;;5034119;28;20022;-59
2022/11/14 06:17:30;;;;;;;48.25;36.92;;;12.40;1.00;;;;;;5036520;28;20128;-59
2022/11/14 06:19:56;;;;;;;47.53;36.03;;;12.50;1.00;;;;;;5045108;28;20033;-59
2022/11/14 06:22:21;;;;;;;47.42;35.15;;;12.50;1.00;;;;;;5033550;28;20458;-59
2022/11/14 06:24:47;;;;;;;45.83;34.72;;;12.40;1.00;;;;;;5033501;28;20119;-59
2022/11/14 06:27:12;;;;;;;47.03;33.03;;;12.50;1.00;;;;;;5033410;28;20475;-59
2022/11/14 06:29:38;;;;;;;48.25;34.55;;;12.60;1.00;;;;;;5032349;28;20017;-59
2022/11/14 06:32:04;;;;;;;49.75;35.88;;;12.50;1.00;;;;;;5032058;28;20026;-59
2022/11/14 06:34:29;;;;;;;50.42;35.55;;;12.40;1.00;;;;;;5030739;28;20439;-59
2022/11/14 06:36:55;;;;;;;47.22;34.45;;;12.50;1.00;;;;;;5031041;28;20028;-59
2022/11/14 06:39:20;;;;;;;47.58;34.55;;;12.50;1.00;;;;;;5031450;28;20022;-58
2022/11/14 06:41:46;;;;;;;45.03;33.50;;;12.50;1.00;;;;;;5027333;28;20022;-59
2022/11/14 06:44:13;;;;;;;46.75;35.17;;;12.40;1.00;;;;;;5033164;28;20463;-59
2022/11/14 06:46:39;;;;;;;44.78;33.13;;;12.40;1.00;;;;;;5031812;28;20395;-59
2022/11/14 06:49:05;;;;;;;46.72;34.35;;;12.50;1.00;;;;;;5032934;28;20041;-59
2022/11/14 06:51:31;;;;;;;43.45;32.70;;;12.50;1.00;;;;;;5032840;28;20036;-59
2022/11/14 06:53:56;;;;;;;46.08;33.78;;;12.40;1.00;;;;;;5033076;28;20028;-59
2022/11/14 06:56:22;;;;;;;47.58;34.53;;;12.50;1.00;;;;;;5033542;28;20155;-59
2022/11/14 06:58:48;;;;;;;42.70;31.73;;;12.60;1.00;;;;;;5032858;28;20372;-59
2022/11/14 07:01:20;;;;;;;43.88;33.08;;;12.50;1.00;;;;;;5028788;28;20087;-59
2022/11/14 07:03:46;;;;;;;41.47;30.65;;;12.50;1.00;;;;;;5065031;28;20059;-59
2022/11/14 07:06:18;;;;;;;41.75;30.83;;;12.60;1.00;;;;;;5033187;28;20475;-59
2022/11/14 07:08:43;;;;;;;41.58;31.83;;;12.70;1.00;;;;;;5032955;28;20026;-59
2022/11/14 07:11:24;;;;;;;41.85;32.50;;;12.70;1.00;;;;;;5032930;28;20467;-60
2022/11/14 07:13:55;;;;;;;37.72;30.98;;;12.80;1.00;;;;;;5032816;28;20025;-59
2022/11/14 07:16:29;;;;;;;42.50;31.27;;;12.80;1.00;;;;;;5032903;28;20034;-59
2022/11/14 07:18:56;;;;;;;41.75;31.10;;;12.70;1.00;;;;;;5032670;28;20060;-59
2022/11/14 07:21:22;;;;;;;39.95;30.50;;;12.80;1.00;;;;;;5032914;28;20076;-60
2022/11/14 07:23:48;;;;;;;42.88;31.52;;;12.80;1.00;;;;;;5032371;28;20049;-60
2022/11/14 07:26:13;;;;;;;40.20;29.95;;;12.80;1.00;;;;;;5032574;28;20021;-60
2022/11/14 07:28:41;;;;;;;41.45;29.98;;;12.90;1.00;;;;;;5032713;28;20122;-60
2022/11/14 07:31:11;;;;;;;41.72;30.10;;;12.90;1.00;;;;;;5030611;28;20526;-60
2022/11/14 07:33:46;;;;;;;39.10;28.80;;;12.90;1.00;;;;;;5032376;28;20036;-59
2022/11/14 07:36:13;;;;;;;34.60;26.63;;;12.90;1.00;;;;;;5031268;28;20574;-60
2022/11/14 07:38:39;;;;;;;37.22;26.83;;;13.00;1.00;;;;;;5032798;28;20029;-60
2022/11/14 07:41:13;;;;;;;35.63;27.40;;;13.00;1.00;;;;;;5032325;28;20460;-61
2022/11/14 07:43:40;;;;;;;38.00;28.10;;;13.10;1.00;;;;;;5032497;28;20030;-60
2022/11/14 07:46:11;;;;;;;34.38;26.35;;;13.10;1.00;;;;;;5032405;28;20386;-59
2022/11/14 07:48:37;;;;;;;34.97;26.83;;;13.00;1.00;;;;;;5032156;28;20507;-59
2022/11/14 07:51:05;;;;;;;34.22;26.02;;;13.00;1.00;;;;;;5032370;28;20053;-61
2022/11/14 07:53:31;;;;;;;37.50;26.40;;;12.90;1.00;;;;;;5032333;28;20034;-61
2022/11/14 07:56:02;;;;;;;33.03;25.67;;;13.20;1.00;;;;;;5032386;28;20041;-61
2022/11/14 07:58:27;;;;;;;35.65;28.20;;;13.10;1.00;;;;;;5032358;28;20055;-61
2022/11/14 08:00:53;;;;;;;36.65;25.92;;;13.20;1.00;;;;;;5032021;28;20506;-61
2022/11/14 08:03:19;;;;;;;34.17;26.75;;;13.20;1.00;;;;;;5046782;28;20032;-69
2022/11/14 08:05:44;;;;;;;33.25;25.60;;;13.30;1.00;;;;;;5033349;28;20025;-72
2022/11/14 08:08:10;;;;;;;34.20;25.77;;;13.20;1.00;;;;;;5033515;28;20030;-63
2022/11/14 08:10:35;;;;;;;34.10;26.13;;;13.20;1.00;;;;;;5039643;28;20481;-63
2022/11/14 08:13:04;;;;;;;31.63;25.13;;;13.00;1.00;;;;;;5041217;28;20056;-65
2022/11/14 08:15:30;;;;;;;31.83;26.30;;;13.10;1.00;;;;;;5032398;28;20060;-67
2022/11/14 08:18:00;;;;;;;34.15;26.45;;;13.10;1.00;;;;;;5032798;28;20079;-69
2022/11/14 08:20:26;;;;;;;32.22;24.58;;;13.10;1.00;;;;;;5032207;28;20364;-62
2022/11/14 08:23:03;;;;;;;31.60;23.95;;;13.20;1.00;;;;;;5032329;28;20408;-61
2022/11/14 08:25:29;;;;;;;32.13;23.95;;;13.20;1.00;;;;;;5031983;28;20100;-61
2022/11/14 08:27:54;;;;;;;30.25;22.88;;;13.30;1.00;;;;;;5032577;28;20117;-61
2022/11/14 08:30:20;;;;;;;31.38;23.63;;;13.20;1.00;;;;;;5032444;28;20029;-59
2022/11/14 08:32:45;;;;;;;33.08;24.90;;;13.20;1.00;;;;;;5032324;28;20038;-61
2022/11/14 08:35:11;;;;;;;29.63;23.60;;;13.20;1.00;;;;;;5032731;28;20117;-60
2022/11/14 08:37:36;;;;;;;30.00;24.38;;;13.10;1.00;;;;;;5032369;28;20033;-60
2022/11/14 08:40:02;;;;;;;32.13;23.60;;;13.20;1.00;;;;;;5031389;28;20452;-69
2022/11/14 08:42:28;;;;;;;31.42;24.63;;;13.20;1.00;;;;;;5032314;28;20112;-71
2022/11/14 08:44:54;;;;;;;30.73;23.73;;;13.10;1.00;;;;;;5037095;28;20501;-59
2022/11/14 08:47:20;;;;;;;32.05;24.38;;;13.20;1.00;;;;;;5036318;28;20037;-71
2022/11/14 08:49:45;;;;;;;31.98;25.40;;;13.30;1.00;;;;;;5022256;28;20033;-63
2022/11/14 08:52:11;;;;;;;29.67;24.77;;;13.30;1.00;;;;;;5035659;28;20119;-64
2022/11/14 08:54:36;;;;;;;33.13;25.63;;;13.30;1.00;;;;;;5036460;28;20471;-66
2022/11/14 08:57:03;;;;;;;33.45;24.40;;;13.40;1.00;;;;;;5028216;28;20026;-57
2022/11/14 08:59:29;;;;;;;32.75;24.67;;;13.40;1.00;;;;;;5022771;28;20487;-64
2022/11/14 09:01:55;;;;;;;33.55;24.65;;;13.40;1.00;;;;;;5034630;28;20386;-71
2022/11/14 09:04:21;;;;;;;33.13;25.73;;;13.30;1.00;;;;;;5035351;28;20100;-74
2022/11/14 09:06:46;;;;;;;32.75;25.45;;;13.40;1.00;;;;;;5035457;28;20379;-71
2022/11/14 09:09:12;;;;;;;28.60;22.80;;;13.30;1.00;;;;;;5035544;28;20108;-66
2022/11/14 09:11:38;;;;;;;29.60;22.90;;;13.30;1.00;;;;;;5035604;28;20394;-68
2022/11/14 09:14:04;;;;;;;29.55;23.58;;;13.40;1.00;;;;;;5035467;28;20156;-70
2022/11/14 09:16:30;;;;;;;29.50;22.80;;;13.40;1.00;;;;;;5035951;28;20055;-66
2022/11/14 09:18:55;;;;;;;31.40;23.50;;;13.40;1.00;;;;;;5034955;28;20380;-70
2022/11/14 09:21:21;;;;;;;30.83;23.00;;;13.40;1.00;;;;;;5035457;28;20025;-63
2022/11/14 09:23:47;;;;;;;28.63;22.50;;;13.40;1.00;;;;;;5035123;28;20110;-66
2022/11/14 09:26:12;;;;;;;30.65;23.73;;;13.50;1.00;;;;;;5045530;28;20028;-75
2022/11/14 09:28:38;;;;;;;27.80;22.80;;;13.50;1.00;;;;;;5039180;28;20448;-69
2022/11/14 09:31:06;;;;;;;29.67;22.75;;;13.60;1.00;;;;;;5030281;28;20328;-69
2022/11/14 09:33:33;;;;;;;32.35;23.48;;;13.60;1.00;;;;;;5034724;28;20482;-69
2022/11/14 09:36:04;;;;;;;28.13;20.75;;;13.40;1.00;;;;;;5035635;28;20173;-69
2022/11/14 09:38:31;;;;;;;26.88;19.48;;;13.40;1.00;;;;;;5036046;28;20478;-70
2022/11/14 09:41:27;;;;;;;24.80;20.25;;;13.50;1.00;;;;;;5035252;28;20379;-66
2022/11/14 09:44:01;;;;;;;24.08;20.20;;;13.50;1.00;;;;;;5034710;28;20108;-71
2022/11/14 09:46:43;;;;;;;26.30;21.40;;;13.40;1.00;;;;;;5033526;28;20483;-64
2022/11/14 09:49:33;;;;;;;25.23;19.75;;;13.50;1.00;;;;;;5033465;28;20510;-63
2022/11/14 09:52:09;;;;;;;24.95;19.42;;;13.50;1.00;;;;;;5034804;28;20467;-65
2022/11/14 09:54:46;;;;;;;29.70;20.88;;;13.60;1.00;;;;;;5034346;28;20097;-70
2022/11/14 09:57:18;;;;;;;25.95;20.08;;;13.60;1.00;;;;;;5033735;28;20026;-70
2022/11/14 09:59:43;;;;;;;27.98;21.35;;;13.60;1.00;;;;;;5034755;28;20125;-69
2022/11/14 10:02:28;;;;;;;31.05;22.40;;;13.60;1.00;;;;;;5034370;28;20040;-67
2022/11/14 10:04:56;;;;;;;25.00;19.77;;;13.60;1.00;;;;;;5034080;28;20045;-70
2022/11/14 10:07:46;;;;;;;25.58;20.48;;;13.70;1.00;;;;;;5028443;28;20048;-70
2022/11/14 10:10:42;;;;;;;25.13;20.85;;;13.50;1.00;;;;;;5034595;28;20056;-68
2022/11/14 10:13:44;;;;;;;23.25;19.77;;;13.80;1.00;;;;;;5034722;28;20128;-70
2022/11/14 10:16:22;;;;;;;25.15;20.67;;;13.70;1.00;;;;;;5025556;28;20037;-62
2022/11/14 10:19:08;;;;;;;24.30;19.52;;;13.90;1.00;;;;;;5034217;28;20034;-61
2022/11/14 10:21:58;;;;;;;25.77;20.88;;;13.80;1.00;;;;;;5027599;28;20021;-64
2022/11/14 10:24:45;;;;;;;28.77;20.92;;;13.90;1.00;;;;;;5022250;28;20126;-62
2022/11/14 10:27:24;;;;;;;24.70;20.15;;;14.00;1.00;;;;;;5033827;28;20041;-61
2022/11/14 10:30:04;;;;;;;26.90;20.73;;;13.90;1.00;;;;;;5034528;28;20033;-68
2022/11/14 10:32:39;;;;;;;24.48;19.42;;;13.90;1.00;;;;;;5034162;28;20087;-67
2022/11/14 10:35:13;;;;;;;28.33;22.45;;;14.00;1.00;;;;;;5033781;28;20471;-66
2022/11/14 10:38:00;;;;;;;25.17;21.23;;;13.80;1.00;;;;;;5033868;28;20493;-69
2022/11/14 10:40:44;;;;;;;27.85;22.70;;;14.10;1.00;;;;;;5028057;28;20021;-62
2022/11/14 10:43:41;;;;;;;28.20;22.27;;;14.00;1.00;;;;;;5035119;28;20386;-62
2022/11/14 10:46:12;;;;;;;27.48;22.00;;;14.00;1.00;;;;;;5034002;28;20343;-64
2022/11/14 10:48:46;;;;;;;27.50;22.15;;;14.00;1.00;;;;;;5023458;28;20141;-62
2022/11/14 10:51:32;;;;;;;26.05;21.05;;;14.20;1.00;;;;;;5024367;28;20037;-64
2022/11/14 10:54:14;;;;;;;28.80;23.13;;;14.20;1.00;;;;;;5025081;28;20037;-64
2022/11/14 10:56:48;;;;;;;30.05;24.95;;;14.30;1.00;;;;;;5038165;28;20025;-62
2022/11/14 10:59:13;;;;;;;32.63;26.52;;;14.30;1.00;;;;;;5031834;28;20037;-67
2022/11/14 11:01:49;;;;;;;27.98;24.17;;;14.40;1.00;;;;;;5031783;28;20034;-54
2022/11/14 11:04:22;;;;;;;30.52;25.27;;;14.50;1.00;;;;;;5019049;28;20112;-63
2022/11/14 11:06:50;;;;;;;27.75;21.85;;;14.40;1.00;;;;;;5031571;28;20053;-61
2022/11/14 11:12:06;;;;;;;29.88;23.63;;;14.50;1.00;;;;;;5026090;28;20048;-62
2022/11/14 11:14:33;;;;;;;25.48;21.80;;;14.20;1.00;;;;;;5032027;28;20025;-62
2022/11/14 11:17:27;;;;;;;26.45;21.52;;;13.50;1.00;;;;;;5032044;28;20509;-62
2022/11/14 11:19:53;;;;;;;26.38;21.70;;;13.40;1.00;;;;;;5021329;28;20040;-62
2022/11/14 11:22:23;;;;;;;25.60;22.05;;;12.90;1.00;;;;;;5031907;28;20368;-63
2022/11/14 11:24:49;;;;;;;29.27;23.52;;;12.60;1.00;;;;;;5031513;28;20061;-62
2022/11/14 11:27:19;;;;;;;25.45;20.90;;;13.50;1.00;;;;;;5032055;28;20510;-62
2022/11/14 11:29:45;;;;;;;27.17;22.38;;;14.00;1.00;;;;;;5038375;28;20041;-62
2022/11/14 11:32:22;;;;;;;24.80;21.63;;;14.20;1.00;;;;;;5038838;28;20116;-59
2022/11/14 11:34:48;;;;;;;25.08;21.45;;;14.30;1.00;;;;;;5029904;27;20068;-62
2022/11/14 11:37:15;;;;;;;25.00;21.17;;;14.50;1.00;;;;;;5039706;28;20057;-62
2022/11/14 11:39:59;;;;;;;26.13;19.92;;;14.60;1.00;;;;;;5031239;28;20023;-62
2022/11/14 11:42:40;;;;;;;29.07;21.73;;;14.70;1.00;;;;;;5031358;28;20426;-62
2022/11/14 11:45:16;;;;;;;26.77;20.98;;;14.80;1.00;;;;;;5031485;28;20091;-62
2022/11/14 11:47:47;;;;;;;27.38;21.88;;;14.90;1.00;;;;;;5031250;28;20029;-62
2022/11/14 11:50:16;;;;;;;26.17;21.23;;;14.90;1.00;;;;;;5018175;28;20028;-62
2022/11/14 11:53:00;;;;;;;26.02;21.30;;;15.00;1.00;;;;;;5027681;28;20073;-61
2022/11/14 11:55:32;;;;;;;26.15;21.48;;;15.20;1.00;;;;;;5031376;28;20017;-62
2022/11/14 11:58:11;;;;;;;24.08;20.45;;;15.30;1.00;;;;;;5035183;28;20068;-62
2022/11/14 12:00:37;;;;;;;33.40;22.58;;;15.30;1.00;;;;;;5039958;28;20111;-63
2022/11/14 12:03:08;;;;;;;24.00;20.17;;;15.30;1.00;;;;;;5031037;28;20542;-61
2022/11/14 12:05:43;;;;;;;26.50;22.20;;;15.20;1.00;;;;;;5031863;28;20112;-62
2022/11/14 12:08:11;;;;;;;;;;;15.30;1.00;;;;;;5023037;28;20037;-61
2022/11/14 12:10:40;;;;;;;25.27;21.20;;;15.20;1.00;;;;;;5030847;28;19913;-61
2022/11/14 12:13:42;;;;;;;25.20;19.17;;;15.20;1.00;;;;;;5029570;28;20450;-61
2022/11/14 12:16:34;;;;;;;26.17;20.67;;;15.40;1.00;;;;;;5029926;28;20105;-61
2022/11/14 12:19:22;;;;;;;21.70;18.50;;;15.30;1.00;;;;;;5029363;28;20052;-62
2022/11/14 12:22:16;;;;;;;22.33;17.85;;;15.20;1.00;;;;;;5046763;28;20056;-60
2022/11/14 12:24:42;;;;;;;19.63;16.27;;;15.30;1.00;;;;;;5030503;28;20034;-62
2022/11/14 12:27:37;;;;;;;19.88;15.95;;;15.40;1.00;;;;;;5030860;28;20029;-61
2022/11/14 12:30:20;;;;;;;19.70;16.02;;;15.40;1.00;;;;;;5030856;28;20216;-61
2022/11/14 12:32:49;;;;;;;19.63;16.55;;;15.50;1.00;;;;;;5024968;28;20046;-61
2022/11/14 12:35:22;;;;;;;21.40;17.13;;;15.50;1.00;;;;;;5030774;28;20041;-62
2022/11/14 12:37:50;;;;;;;20.35;17.08;;;15.40;1.00;;;;;;5030759;28;20140;-61
2022/11/14 12:40:21;;;;;;;23.92;19.35;;;15.40;1.00;;;;;;5030262;28;20116;-61
2022/11/14 12:42:47;;;;;;;22.27;16.50;;;15.40;1.00;;;;;;5030835;28;20037;-61
2022/11/14 12:45:48;;;;;;;20.75;16.27;;;15.40;1.00;;;;;;5032356;28;20033;-61
2022/11/14 12:48:20;;;;;;;20.67;16.55;;;15.50;1.00;;;;;;5028201;28;20048;-62
2022/11/14 12:50:45;;;;;;;17.52;15.50;;;15.50;1.00;;;;;;5017549;28;20037;-61